Hudson, Wyoming
Current Conditions -  °F | °C
As of 10:53 AM on Saturday 20 Dec 2014 (Local Time) from KLND Reporting Station
Clear Clear  
Wind Chill: 20°   Ceiling: Unl
Heat Index: 20°   Visibility: 9mi
Dew Point: 14°   Wind: 0mph
Humidity: 78%   Direction: NA
Pressure: 29.96"   Gusts: NA
Location:  42.91°N, 108.58°W
Report Text: KLND 201753Z AUTO 00000KT 9SM CLR M07/M10 A2996 RMK AO2 SLP212 T10671100 11044 21122 50006
Loading
Personal Weather Stations






























Interactive Weather Map New forecast layout! Learn more

10-Day Weather Forecast

Advertisements
Track Severe Weather on mobile